createdAt,value
2024-02-13T00:03:30.467Z,11.70
2024-02-13T00:08:44.571Z,10.83
2024-02-13T00:13:48.761Z,12.63
2024-02-13T00:18:51.946Z,11.13
2024-02-13T00:23:54.697Z,11.52
2024-02-13T00:28:57.779Z,12.30
2024-02-13T00:34:00.885Z,11.63
2024-02-13T00:39:04.331Z,11.13
2024-02-13T00:44:07.123Z,12.02
2024-02-13T00:49:09.836Z,11.70
2024-02-13T00:54:15.182Z,10.98
2024-02-13T00:59:18.681Z,9.73
2024-02-13T01:04:22.442Z,13.95
2024-02-13T01:09:26.381Z,13.98
2024-02-13T01:14:29.068Z,13.90
2024-02-13T01:19:33.130Z,14.77
2024-02-13T01:24:35.803Z,17.60
2024-02-13T01:29:38.757Z,16.10
2024-02-13T01:34:42.252Z,18.67
2024-02-13T01:39:45.097Z,17.17
2024-02-13T01:45:08.014Z,19.42
2024-02-13T01:50:14.438Z,20.75
2024-02-13T01:55:20.203Z,21.77
2024-02-13T02:00:23.480Z,21.23
2024-02-13T02:05:26.653Z,26.50
2024-02-13T02:10:29.416Z,22.50
2024-02-13T02:15:32.116Z,25.50
2024-02-13T02:20:34.850Z,27.38
2024-02-13T02:25:37.499Z,24.95
2024-02-13T02:30:41.069Z,26.38
2024-02-13T02:35:44.065Z,29.88
2024-02-13T02:40:46.999Z,24.05
2024-02-13T02:45:50.179Z,26.55
2024-02-13T02:50:55.401Z,27.45
2024-02-13T02:55:58.099Z,29.85
2024-02-13T03:01:01.664Z,29.95
2024-02-13T03:06:09.516Z,31.52
2024-02-13T03:11:12.245Z,29.50
2024-02-13T03:16:15.403Z,34.53
2024-02-13T03:21:18.068Z,34.72
2024-02-13T03:26:20.799Z,37.13
2024-02-13T03:31:23.535Z,38.10
2024-02-13T03:36:26.216Z,37.50
2024-02-13T03:41:28.902Z,31.30
2024-02-13T03:46:31.545Z,36.17
2024-02-13T03:51:34.733Z,42.10
2024-02-13T03:56:38.973Z,35.38
2024-02-13T04:01:44.365Z,38.88
2024-02-13T04:06:47.131Z,40.58
2024-02-13T04:11:51.744Z,39.08
2024-02-13T04:16:54.438Z,34.65
2024-02-13T04:21:57.293Z,38.63
2024-02-13T04:27:00.056Z,39.92
2024-02-13T04:32:03.274Z,39.70
2024-02-13T04:37:05.964Z,41.63
2024-02-13T04:42:11.490Z,38.38
2024-02-13T04:47:14.085Z,36.95
2024-02-13T04:52:16.782Z,39.35
2024-02-13T04:57:21.834Z,33.85
2024-02-13T05:02:30.500Z,38.92
2024-02-13T05:07:33.657Z,37.03
2024-02-13T05:12:36.348Z,34.20
2024-02-13T05:17:39.045Z,36.90
2024-02-13T05:22:42.202Z,35.92
2024-02-13T05:27:45.890Z,32.95
2024-02-13T05:32:48.678Z,35.53
2024-02-13T05:37:53.097Z,35.42
2024-02-13T05:42:56.120Z,25.05
2024-02-13T05:47:58.818Z,34.53
2024-02-13T05:53:02.445Z,33.03
2024-02-13T05:58:06.241Z,31.42
2024-02-13T06:03:10.068Z,28.23
2024-02-13T06:08:13.999Z,26.83
2024-02-13T06:13:16.752Z,30.60
2024-02-13T06:18:20.611Z,26.08
2024-02-13T06:23:24.917Z,29.60
2024-02-13T06:28:27.563Z,30.55
2024-02-13T06:33:31.088Z,30.15
2024-02-13T06:38:35.997Z,29.03
2024-02-13T06:43:38.732Z,28.15
2024-02-13T06:48:42.693Z,30.77
2024-02-13T06:53:45.714Z,29.60
2024-02-13T06:58:48.561Z,26.70
2024-02-13T07:03:51.557Z,28.52
2024-02-13T07:08:54.525Z,29.65
2024-02-13T07:13:57.450Z,29.48
2024-02-13T07:19:00.255Z,29.40
2024-02-13T07:24:03.704Z,28.40
2024-02-13T07:29:07.638Z,30.35
2024-02-13T07:34:12.440Z,24.23
2024-02-13T07:39:16.049Z,23.95
2024-02-13T07:44:18.936Z,25.23
2024-02-13T07:49:21.600Z,25.33
2024-02-13T07:54:30.023Z,22.98
2024-02-13T07:59:32.815Z,21.02
2024-02-13T08:04:36.992Z,24.35
2024-02-13T08:09:40.757Z,24.65
2024-02-13T08:14:44.344Z,21.73
2024-02-13T08:19:47.602Z,18.93
2024-02-13T08:24:50.748Z,17.20
2024-02-13T08:29:55.800Z,16.88
2024-02-13T08:35:00.843Z,20.63
2024-02-13T08:40:04.066Z,13.82
2024-02-13T08:45:07.847Z,14.73
2024-02-13T08:50:14.197Z,16.33
2024-02-13T08:55:17.247Z,15.90
2024-02-13T09:00:20.614Z,10.93
2024-02-13T09:05:23.507Z,15.05
2024-02-13T09:10:26.206Z,11.65
2024-02-13T09:15:30.826Z,12.10
2024-02-13T09:25:39.510Z,14.65
2024-02-13T09:30:43.327Z,12.48
2024-02-13T09:35:47.154Z,16.93
2024-02-13T09:40:50.300Z,13.57
2024-02-13T09:45:53.370Z,16.52
2024-02-13T09:50:59.620Z,16.30
2024-02-13T09:56:02.906Z,12.70
2024-02-13T10:01:06.428Z,13.07
2024-02-13T10:06:13.908Z,16.05
2024-02-13T10:11:17.724Z,17.05
2024-02-13T10:16:23.631Z,17.63
2024-02-13T10:21:27.883Z,15.77
2024-02-13T10:26:31.378Z,15.23
2024-02-13T10:31:37.515Z,17.08
2024-02-13T10:36:45.844Z,12.75
2024-02-13T10:41:50.278Z,11.52
2024-02-13T10:46:57.410Z,17.27
2024-02-13T10:52:06.694Z,14.93
2024-02-13T10:57:09.571Z,14.43
2024-02-13T11:02:15.774Z,13.25
2024-02-13T11:07:19.462Z,11.88
2024-02-13T11:12:23.488Z,13.33
2024-02-13T11:17:32.443Z,12.43
2024-02-13T11:22:38.320Z,11.85
2024-02-13T11:27:41.879Z,11.45
2024-02-13T11:32:48.352Z,10.65
2024-02-13T11:37:52.206Z,12.48
2024-02-13T11:42:55.244Z,12.00
2024-02-13T11:47:58.905Z,13.27
2024-02-13T11:53:03.725Z,11.10
2024-02-13T11:58:10.929Z,11.65
2024-02-13T12:03:13.514Z,10.88
2024-02-13T12:08:16.828Z,11.35
2024-02-13T12:13:23.009Z,12.77
2024-02-13T12:18:32.222Z,11.02
2024-02-13T12:23:36.355Z,10.32
2024-02-13T12:28:44.261Z,8.73
2024-02-13T12:33:50.331Z,11.60
2024-02-13T12:39:02.863Z,10.10
2024-02-13T12:44:05.728Z,11.43
2024-02-13T12:49:08.765Z,10.55
2024-02-13T12:54:11.747Z,11.93
2024-02-13T12:59:14.455Z,11.75
2024-02-13T13:04:17.341Z,9.90
2024-02-13T13:09:28.251Z,7.53
2024-02-13T13:14:32.432Z,6.63
2024-02-13T13:19:38.364Z,7.87
2024-02-13T13:24:42.769Z,7.60
2024-02-13T13:34:50.596Z,6.85
2024-02-13T13:39:53.698Z,7.20
2024-02-13T13:44:56.638Z,5.55
2024-02-13T13:49:59.617Z,6.00
2024-02-13T13:55:03.764Z,5.80
2024-02-13T14:00:10.704Z,6.05
2024-02-13T14:05:16.021Z,6.45
2024-02-13T14:10:18.881Z,5.18
2024-02-13T14:15:21.785Z,5.88
2024-02-13T14:20:24.537Z,5.65
2024-02-13T14:25:28.114Z,5.88
2024-02-13T14:30:30.934Z,6.55
2024-02-13T14:35:35.686Z,5.35
2024-02-13T14:40:40.850Z,5.68
2024-02-13T14:45:45.634Z,5.05
2024-02-13T14:50:49.168Z,5.15
2024-02-13T14:55:52.261Z,4.30
2024-02-13T15:00:56.349Z,4.97
2024-02-13T15:05:59.233Z,5.70
2024-02-13T15:11:04.785Z,5.22
2024-02-13T15:16:08.622Z,5.47
2024-02-13T15:21:11.981Z,5.40
2024-02-13T15:26:14.708Z,5.57
2024-02-13T15:31:17.457Z,4.95
2024-02-13T15:36:32.802Z,5.57
2024-02-13T15:41:54.074Z,6.07
2024-02-13T15:46:59.675Z,6.18
2024-02-13T15:52:06.965Z,5.13
2024-02-13T15:57:13.844Z,5.05
2024-02-13T16:02:19.473Z,5.25
2024-02-13T16:07:24.152Z,5.05
2024-02-13T16:17:30.802Z,4.32
2024-02-13T16:22:35.720Z,4.20
2024-02-13T16:27:39.380Z,4.68
2024-02-13T16:32:42.377Z,3.92
2024-02-13T16:37:45.190Z,4.60
2024-02-13T16:42:53.770Z,4.68
2024-02-13T16:47:58.153Z,4.18
2024-02-13T16:53:00.897Z,4.72
2024-02-13T16:58:04.411Z,4.25
2024-02-13T17:03:07.173Z,4.55
2024-02-13T17:08:10.976Z,4.47
2024-02-13T17:13:14.671Z,3.30
2024-02-13T17:18:17.370Z,4.43
2024-02-13T17:23:22.062Z,4.10
2024-02-13T17:28:27.106Z,4.70
2024-02-13T17:33:30.693Z,4.63
2024-02-13T17:38:35.901Z,3.83
2024-02-13T17:43:40.581Z,4.70
2024-02-13T17:48:43.657Z,4.32
2024-02-13T17:53:47.146Z,3.65
2024-02-13T17:58:50.025Z,4.68
2024-02-13T18:03:53.411Z,4.90
2024-02-13T18:08:56.341Z,5.20
2024-02-13T18:13:59.260Z,5.45
2024-02-13T18:19:03.866Z,4.90
2024-02-13T18:24:07.349Z,4.90
2024-02-13T18:29:11.046Z,5.50
2024-02-13T18:34:15.291Z,5.70
2024-02-13T18:39:19.467Z,6.50
2024-02-13T18:44:23.939Z,6.50
2024-02-13T18:54:29.587Z,7.13
2024-02-13T18:59:32.207Z,6.93
2024-02-13T19:04:35.267Z,6.63
2024-02-13T19:09:38.026Z,7.57
2024-02-13T19:14:42.264Z,5.65
2024-02-13T19:19:44.930Z,7.63
2024-02-13T19:24:47.655Z,6.75
2024-02-13T19:29:50.428Z,5.40
2024-02-13T19:34:53.420Z,7.05
2024-02-13T19:39:56.711Z,7.60
2024-02-13T19:45:00.698Z,8.20
2024-02-13T19:50:22.198Z,7.93
2024-02-13T19:55:25.462Z,7.75
2024-02-13T20:00:28.171Z,7.40
2024-02-13T20:05:31.345Z,8.25
2024-02-13T20:10:35.685Z,8.10
2024-02-13T20:15:41.745Z,8.50
2024-02-13T20:20:45.648Z,10.05
2024-02-13T20:25:48.741Z,10.43
2024-02-13T20:30:51.531Z,8.90
2024-02-13T20:36:03.930Z,9.85
2024-02-13T20:41:09.117Z,9.30
2024-02-13T20:46:16.466Z,9.18
2024-02-13T20:51:19.145Z,10.30
2024-02-13T20:56:22.333Z,9.48
2024-02-13T21:01:28.312Z,9.85
2024-02-13T21:06:31.095Z,9.13
2024-02-13T21:11:34.592Z,9.27
2024-02-13T21:16:40.484Z,9.43
2024-02-13T21:22:03.054Z,8.30
2024-02-13T21:27:05.993Z,9.32
2024-02-13T21:32:08.643Z,8.63
2024-02-13T21:37:11.618Z,8.40
2024-02-13T21:42:14.379Z,7.15
2024-02-13T21:47:17.150Z,8.55
2024-02-13T21:52:19.807Z,6.32
2024-02-13T21:57:24.946Z,4.07
2024-02-13T22:02:27.616Z,5.57
2024-02-13T22:07:30.640Z,7.35
2024-02-13T22:12:33.239Z,8.18
2024-02-13T22:17:36.142Z,5.22
2024-02-13T22:22:45.609Z,7.18
2024-02-13T22:27:48.318Z,7.25
2024-02-13T22:32:52.898Z,7.55
2024-02-13T22:37:56.472Z,6.85
2024-02-13T22:43:01.933Z,5.53
2024-02-13T22:48:05.112Z,7.47
2024-02-13T22:53:07.743Z,7.78
2024-02-13T22:58:10.458Z,8.38
2024-02-13T23:03:16.593Z,6.82
2024-02-13T23:08:19.525Z,8.23
2024-02-13T23:13:25.242Z,4.93
2024-02-13T23:18:30.576Z,5.18
2024-02-13T23:23:36.360Z,9.70
2024-02-13T23:28:48.742Z,6.85
2024-02-13T23:33:59.588Z,7.22
2024-02-13T23:39:04.506Z,6.28
2024-02-13T23:49:10.385Z,7.95
2024-02-13T23:59:17.328Z,5.28
